Time;durP1;ratioP1;P1;durP2;ratioP2;P2;SDS_P1;SDS_P2;PMS_P1;PMS_P2;Temp;Humidity;BMP_temperature;BMP_pressure;BME280_temperature;BME280_humidity;BME280_pressure;Samples;Min_cycle;Max_cycle;Signal;HPM_P1;HPM_P2
2022/08/24 00:01:17;;;;;;;1.40;1.20;;;22.30;99.90;;;;;;6185140;23;20039;-78
2022/08/24 00:03:44;;;;;;;3.45;1.35;;;22.20;99.90;;;;;;6185216;23;19997;-78
2022/08/24 00:06:19;;;;;;;2.38;1.65;;;22.10;99.90;;;;;;6158769;23;20334;-78
2022/08/24 00:08:47;;;;;;;1.48;1.38;;;22.00;99.90;;;;;;6185058;23;20001;-78
2022/08/24 00:11:13;;;;;;;1.70;1.60;;;22.10;99.90;;;;;;6185090;23;20028;-78
2022/08/24 00:13:39;;;;;;;2.15;1.73;;;22.10;99.90;;;;;;6185070;23;20023;-77
2022/08/24 00:16:09;;;;;;;7.10;1.52;;;22.10;99.90;;;;;;6185099;23;20084;-78
2022/08/24 00:18:35;;;;;;;1.98;1.50;;;22.10;99.90;;;;;;6184933;23;20009;-78
2022/08/24 00:21:01;;;;;;;3.97;1.65;;;22.10;99.90;;;;;;6185088;23;20001;-78
2022/08/24 00:23:28;;;;;;;2.45;1.70;;;22.10;99.90;;;;;;6184833;23;20112;-78
2022/08/24 00:25:54;;;;;;;3.58;1.38;;;22.00;99.90;;;;;;6185135;23;20004;-78
2022/08/24 00:28:20;;;;;;;4.20;1.95;;;22.10;99.90;;;;;;6184839;23;20008;-78
2022/08/24 00:30:46;;;;;;;2.00;1.80;;;22.10;99.90;;;;;;6158661;23;20001;-78
2022/08/24 00:33:12;;;;;;;4.32;1.70;;;22.10;99.90;;;;;;6184743;23;20438;-78
2022/08/24 00:35:38;;;;;;;2.90;1.80;;;22.10;99.90;;;;;;6184557;23;20001;-78
2022/08/24 00:38:04;;;;;;;3.67;1.77;;;22.10;99.90;;;;;;6184983;23;20008;-78
2022/08/24 00:40:35;;;;;;;2.13;1.60;;;22.10;99.90;;;;;;6158436;23;20012;-78
2022/08/24 00:43:03;;;;;;;2.55;2.00;;;22.10;99.90;;;;;;6158216;23;20084;-78
2022/08/24 00:45:33;;;;;;;3.15;2.00;;;22.00;99.90;;;;;;6184827;23;20075;-78
2022/08/24 00:48:03;;;;;;;3.35;2.10;;;22.00;99.90;;;;;;6184791;23;20448;-78
2022/08/24 00:50:36;;;;;;;2.65;2.08;;;22.10;99.90;;;;;;6185009;23;20495;-78
2022/08/24 00:53:07;;;;;;;2.92;2.38;;;22.10;99.90;;;;;;6184811;23;19997;-79
2022/08/24 00:55:42;;;;;;;2.30;2.10;;;22.10;99.90;;;;;;6184864;23;19997;-78
2022/08/24 00:58:14;;;;;;;3.53;1.95;;;22.10;99.90;;;;;;6184764;23;20004;-79
2022/08/24 01:00:44;;;;;;;3.90;1.90;;;22.00;99.90;;;;;;6184776;23;19998;-78
2022/08/24 01:03:10;;;;;;;2.60;1.95;;;22.00;99.90;;;;;;6184374;23;20004;-78
2022/08/24 01:05:37;;;;;;;2.30;1.80;;;21.90;99.90;;;;;;6184624;23;20139;-78
2022/08/24 01:08:06;;;;;;;3.17;1.65;;;21.90;99.90;;;;;;6184637;23;19997;-78
2022/08/24 01:10:40;;;;;;;1.73;1.63;;;21.90;99.90;;;;;;6158379;23;20340;-78
2022/08/24 01:13:09;;;;;;;2.40;1.83;;;21.90;99.90;;;;;;6158183;23;20006;-78
2022/08/24 01:15:38;;;;;;;2.42;1.50;;;21.90;99.90;;;;;;6158195;23;20345;-78
2022/08/24 01:21:00;;;;;;;1.77;1.67;;;21.90;99.90;;;;;;6184712;23;20012;-78
2022/08/24 01:23:36;;;;;;;1.77;1.67;;;21.90;99.90;;;;;;6158398;23;20033;-78
2022/08/24 01:26:03;;;;;;;2.08;1.67;;;21.90;99.90;;;;;;6158165;23;20032;-78
2022/08/24 01:28:29;;;;;;;1.50;1.40;;;21.90;99.90;;;;;;6184356;23;20433;-78
2022/08/24 01:30:55;;;;;;;1.42;1.33;;;21.80;99.90;;;;;;6184576;23;20005;-78
2022/08/24 01:33:25;;;;;;;2.08;1.48;;;21.80;99.90;;;;;;6184268;23;20001;-78
2022/08/24 01:35:58;;;;;;;2.75;1.75;;;21.80;99.90;;;;;;6184359;23;20000;-79
2022/08/24 01:38:24;;;;;;;1.42;1.35;;;21.80;99.90;;;;;;6184247;23;20001;-78
2022/08/24 01:40:56;;;;;;;2.22;1.60;;;21.70;99.90;;;;;;6184087;23;20001;-78
2022/08/24 01:43:23;;;;;;;;;;;21.70;99.90;;;;;;6184670;23;20001;-78
2022/08/24 01:45:49;;;;;;;1.45;1.33;;;21.70;99.90;;;;;;6184380;23;19903;-78
2022/08/24 01:48:19;;;;;;;1.27;1.20;;;21.70;99.90;;;;;;6157852;23;20377;-78
2022/08/24 01:50:45;;;;;;;1.20;1.10;;;21.60;99.90;;;;;;6157890;23;20311;-78
2022/08/24 01:53:11;;;;;;;1.10;1.10;;;21.70;99.90;;;;;;6184035;23;20033;-77
2022/08/24 01:55:38;;;;;;;1.52;1.40;;;21.60;99.90;;;;;;6158051;23;20444;-78
2022/08/24 01:58:04;;;;;;;1.50;1.40;;;21.60;99.90;;;;;;6184081;23;20001;-78
2022/08/24 02:00:32;;;;;;;4.63;1.65;;;21.60;99.90;;;;;;6184222;23;20001;-78
2022/08/24 02:02:58;;;;;;;1.20;1.10;;;21.60;99.90;;;;;;6184028;23;20036;-78
2022/08/24 02:05:24;;;;;;;1.30;1.20;;;21.60;99.90;;;;;;6173271;23;20323;-78
2022/08/24 02:07:50;;;;;;;1.00;1.00;;;21.60;99.90;;;;;;6184243;23;19998;-78
2022/08/24 02:10:17;;;;;;;1.83;1.00;;;21.60;99.90;;;;;;6183990;23;20063;-78
2022/08/24 02:12:56;;;;;;;2.10;1.13;;;21.50;99.90;;;;;;6184005;23;20028;-78
2022/08/24 02:15:26;;;;;;;1.42;1.33;;;21.50;99.90;;;;;;6183768;23;20334;-78
2022/08/24 02:17:53;;;;;;;2.22;1.17;;;21.50;99.90;;;;;;6184153;23;20027;-78
2022/08/24 02:20:20;;;;;;;4.30;1.52;;;21.50;99.90;;;;;;6183772;23;20027;-78
2022/08/24 02:22:47;;;;;;;1.58;1.17;;;21.50;99.90;;;;;;6184007;23;19997;-78
2022/08/24 02:25:14;;;;;;;2.83;1.13;;;21.50;99.90;;;;;;6183866;23;20001;-78
2022/08/24 02:27:40;;;;;;;1.10;1.10;;;21.50;99.90;;;;;;6183590;23;19997;-78
2022/08/24 02:30:06;;;;;;;1.20;1.20;;;21.50;99.90;;;;;;6183840;23;20061;-78
2022/08/24 02:32:32;;;;;;;1.52;1.50;;;21.50;99.90;;;;;;6184017;23;20009;-78
2022/08/24 02:34:58;;;;;;;1.42;1.38;;;21.40;99.90;;;;;;6182165;23;20088;-78
2022/08/24 02:37:24;;;;;;;1.20;1.10;;;21.40;99.90;;;;;;6183810;23;20390;-78
2022/08/24 02:39:52;;;;;;;0.98;0.98;;;21.40;99.90;;;;;;6183418;23;20059;-78
2022/08/24 02:42:18;;;;;;;2.22;1.27;;;21.30;99.90;;;;;;6183755;23;20055;-77
2022/08/24 02:44:44;;;;;;;3.60;1.52;;;21.30;99.90;;;;;;6181934;23;20096;-78
2022/08/24 02:47:10;;;;;;;1.13;1.10;;;21.30;99.90;;;;;;6183971;23;20004;-78
2022/08/24 02:49:36;;;;;;;1.17;1.17;;;21.30;99.90;;;;;;6183768;23;20001;-78
2022/08/24 02:52:02;;;;;;;1.42;1.00;;;21.30;99.90;;;;;;6183817;23;20005;-77
2022/08/24 02:54:28;;;;;;;1.10;1.10;;;21.30;99.90;;;;;;6183808;23;20088;-78
2022/08/24 02:56:54;;;;;;;1.45;1.35;;;21.30;99.90;;;;;;6183797;23;20005;-78
2022/08/24 02:59:21;;;;;;;1.27;0.98;;;21.30;99.90;;;;;;6183595;23;20377;-78
2022/08/24 03:01:48;;;;;;;1.13;1.13;;;21.30;99.90;;;;;;6181844;23;20012;-78
2022/08/24 03:04:14;;;;;;;1.33;1.00;;;21.20;99.90;;;;;;6183573;23;20005;-78
2022/08/24 03:06:41;;;;;;;3.40;1.25;;;21.20;99.90;;;;;;6183452;23;20011;-78
2022/08/24 03:09:07;;;;;;;1.10;1.10;;;21.20;99.90;;;;;;6157439;23;20009;-78
2022/08/24 03:11:34;;;;;;;1.35;0.98;;;21.20;99.90;;;;;;6183347;23;20016;-78
2022/08/24 03:13:59;;;;;;;1.90;1.30;;;21.20;99.90;;;;;;6157122;23;20009;-78
2022/08/24 03:16:29;;;;;;;1.20;1.02;;;21.20;99.90;;;;;;6183502;23;20381;-78
2022/08/24 03:18:55;;;;;;;1.40;1.30;;;21.10;99.90;;;;;;6183471;23;20005;-77
2022/08/24 03:21:21;;;;;;;2.08;1.20;;;21.10;99.90;;;;;;6156824;23;20028;-78
2022/08/24 03:23:47;;;;;;;1.63;1.45;;;21.10;99.90;;;;;;6183655;23;20075;-78
2022/08/24 03:26:13;;;;;;;2.65;1.42;;;21.10;99.90;;;;;;6183554;23;20000;-78
2022/08/24 03:28:38;;;;;;;1.10;1.10;;;21.00;99.90;;;;;;6185676;23;20084;-78
2022/08/24 03:31:05;;;;;;;2.08;1.45;;;21.00;99.90;;;;;;6185498;23;20039;-77
2022/08/24 03:33:31;;;;;;;1.40;0.80;;;21.00;99.90;;;;;;6185554;23;20426;-78
2022/08/24 03:35:56;;;;;;;0.95;0.95;;;21.10;99.90;;;;;;6159300;23;20059;-78
2022/08/24 03:38:23;;;;;;;0.93;0.93;;;21.00;99.90;;;;;;6158760;23;20377;-77
2022/08/24 03:40:49;;;;;;;2.28;1.45;;;21.00;99.90;;;;;;6185465;23;20329;-78
2022/08/24 03:46:01;;;;;;;1.42;1.10;;;21.00;99.90;;;;;;6185601;23;20012;-78
2022/08/24 03:48:28;;;;;;;1.33;1.25;;;21.00;99.90;;;;;;6185279;23;20008;-78
2022/08/24 03:50:54;;;;;;;1.15;1.10;;;21.00;99.90;;;;;;6185428;23;20005;-77
2022/08/24 03:53:21;;;;;;;1.52;1.42;;;21.00;99.90;;;;;;6185487;23;20277;-77
2022/08/24 03:55:46;;;;;;;2.30;1.70;;;21.00;99.90;;;;;;6159013;23;20068;-77
2022/08/24 03:58:12;;;;;;;2.90;1.05;;;21.00;99.90;;;;;;6185244;23;20001;-77
2022/08/24 04:00:41;;;;;;;2.60;1.25;;;21.00;99.90;;;;;;6185424;23;20072;-78
2022/08/24 04:03:08;;;;;;;1.40;1.30;;;21.00;99.90;;;;;;6158807;23;20008;-77
2022/08/24 04:05:35;;;;;;;3.42;1.30;;;21.00;99.90;;;;;;6177070;23;20096;-77
2022/08/24 04:08:05;;;;;;;1.30;1.20;;;21.00;99.90;;;;;;6183608;23;20001;-77
2022/08/24 04:10:31;;;;;;;1.30;1.20;;;21.00;99.90;;;;;;6185215;23;20079;-77
2022/08/24 04:12:57;;;;;;;3.08;0.82;;;21.00;99.90;;;;;;6185053;23;20429;-78
2022/08/24 04:15:23;;;;;;;2.05;0.90;;;21.00;99.90;;;;;;6185320;23;20001;-77
2022/08/24 04:17:49;;;;;;;1.20;1.20;;;21.00;99.90;;;;;;6185133;23;20032;-78
2022/08/24 04:20:15;;;;;;;2.03;1.15;;;21.00;99.90;;;;;;6184927;23;20001;-78
2022/08/24 04:22:42;;;;;;;5.18;0.98;;;20.90;99.90;;;;;;6184938;23;20043;-77
2022/08/24 04:25:08;;;;;;;1.80;1.15;;;20.90;99.90;;;;;;6183592;23;20430;-77
2022/08/24 04:27:34;;;;;;;1.67;1.17;;;21.00;99.90;;;;;;6183526;23;20460;-78
2022/08/24 04:30:00;;;;;;;1.80;1.10;;;20.90;99.90;;;;;;6184984;23;20001;-78
2022/08/24 04:32:26;;;;;;;1.50;1.10;;;20.90;99.90;;;;;;6183548;23;20005;-78
2022/08/24 04:34:51;;;;;;;1.17;1.17;;;20.90;99.90;;;;;;6183393;23;20310;-78
2022/08/24 04:37:17;;;;;;;2.72;0.98;;;21.00;99.90;;;;;;6184599;23;20132;-78
2022/08/24 04:39:43;;;;;;;1.85;1.10;;;20.90;99.90;;;;;;6184774;23;20413;-77
2022/08/24 04:42:10;;;;;;;1.20;1.10;;;20.80;99.90;;;;;;6183331;23;20001;-77
2022/08/24 04:44:36;;;;;;;2.25;1.17;;;20.90;99.90;;;;;;6184337;23;19997;-77
2022/08/24 04:47:03;;;;;;;2.08;1.10;;;20.90;99.90;;;;;;6182041;23;20029;-77
2022/08/24 04:49:29;;;;;;;0.95;0.93;;;20.80;99.90;;;;;;6182049;23;20088;-77
2022/08/24 04:51:55;;;;;;;1.00;1.00;;;20.90;99.90;;;;;;6183611;23;20370;-77
2022/08/24 04:54:21;;;;;;;1.05;1.05;;;20.80;99.90;;;;;;6182046;23;20019;-77
2022/08/24 04:56:46;;;;;;;2.88;1.10;;;20.80;99.90;;;;;;6183377;23;20060;-78
2022/08/24 04:59:12;;;;;;;1.48;1.05;;;20.90;99.90;;;;;;6181991;23;20083;-77
2022/08/24 05:01:41;;;;;;;1.17;0.80;;;20.80;99.90;;;;;;6184663;23;20072;-78
2022/08/24 05:04:06;;;;;;;3.70;1.20;;;20.80;99.90;;;;;;6182523;23;20088;-77
2022/08/24 05:06:33;;;;;;;1.42;1.20;;;20.80;99.90;;;;;;6184745;23;20425;-75
2022/08/24 05:09:00;;;;;;;1.08;1.08;;;20.80;99.90;;;;;;6184673;23;20441;-75
2022/08/24 05:11:27;;;;;;;1.10;1.10;;;20.80;99.90;;;;;;6180469;23;20017;-76
2022/08/24 05:13:54;;;;;;;1.70;1.60;;;20.80;99.90;;;;;;6181636;23;20001;-75
2022/08/24 05:16:20;;;;;;;5.63;1.50;;;20.80;99.90;;;;;;6183440;23;20005;-76
2022/08/24 05:18:47;;;;;;;2.10;1.30;;;20.80;99.90;;;;;;6182472;23;20032;-75
2022/08/24 05:21:16;;;;;;;1.60;1.10;;;20.80;99.90;;;;;;6180891;23;20005;-74
2022/08/24 05:23:42;;;;;;;1.98;1.10;;;20.80;99.90;;;;;;6183972;23;20087;-75
2022/08/24 05:26:15;;;;;;;1.73;1.30;;;20.80;99.90;;;;;;6183412;23;20005;-75
2022/08/24 05:28:42;;;;;;;1.48;1.10;;;20.80;99.90;;;;;;6183062;23;20016;-75
2022/08/24 05:31:20;;;;;;;4.15;1.20;;;20.90;99.90;;;;;;6184239;23;20063;-75
2022/08/24 05:33:47;;;;;;;4.40;1.10;;;21.00;99.90;;;;;;6182614;23;20029;-75
2022/08/24 05:36:22;;;;;;;3.55;1.05;;;21.00;99.90;;;;;;6181037;23;20008;-75
2022/08/24 05:38:50;;;;;;;1.50;1.40;;;21.10;99.90;;;;;;6181662;23;20005;-75
2022/08/24 05:41:16;;;;;;;4.07;1.30;;;21.10;99.90;;;;;;6181631;23;20059;-76
2022/08/24 05:43:42;;;;;;;1.40;1.30;;;21.10;99.90;;;;;;6180332;23;20005;-76
2022/08/24 05:46:08;;;;;;;2.80;1.30;;;21.10;99.90;;;;;;6180408;23;20008;-75
2022/08/24 05:48:36;;;;;;;2.63;1.60;;;21.20;99.90;;;;;;6181280;23;20028;-76
2022/08/24 05:51:03;;;;;;;1.70;1.55;;;21.20;99.90;;;;;;6182297;23;20459;-75
2022/08/24 05:53:29;;;;;;;4.75;1.70;;;21.20;99.90;;;;;;6184200;23;20492;-76
2022/08/24 05:55:54;;;;;;;2.97;2.03;;;21.30;99.90;;;;;;6182762;23;20005;-75
2022/08/24 05:58:20;;;;;;;4.53;2.75;;;21.40;99.90;;;;;;6183959;23;20029;-75
2022/08/24 06:00:46;;;;;;;4.50;2.55;;;21.40;99.90;;;;;;6184084;23;20032;-75
2022/08/24 06:03:16;;;;;;;3.53;2.58;;;21.50;99.90;;;;;;6182584;23;20464;-76
2022/08/24 06:05:43;;;;;;;4.90;2.97;;;21.50;99.90;;;;;;6182441;23;20013;-75
2022/08/24 06:08:08;;;;;;;3.75;2.30;;;21.60;99.90;;;;;;6183924;23;20333;-75
2022/08/24 06:10:43;;;;;;;10.48;2.35;;;21.60;99.90;;;;;;6182439;23;20005;-75
2022/08/24 06:13:10;;;;;;;2.80;2.35;;;21.70;99.90;;;;;;6184118;23;20001;-75
2022/08/24 06:15:37;;;;;;;3.80;2.75;;;21.70;99.90;;;;;;6183974;23;20001;-75
2022/08/24 06:18:04;;;;;;;2.28;2.05;;;21.70;99.90;;;;;;6184133;23;20005;-75
2022/08/24 06:20:31;;;;;;;4.63;2.00;;;21.70;99.90;;;;;;6183703;23;20039;-75
2022/08/24 06:22:57;;;;;;;5.90;2.15;;;21.80;99.90;;;;;;6184167;23;20104;-75
2022/08/24 06:28:14;;;;;;;4.40;2.53;;;22.00;99.90;;;;;;6183589;23;20016;-75
2022/08/24 06:30:41;;;;;;;2.25;1.85;;;22.10;99.90;;;;;;6183692;23;19997;-75
2022/08/24 06:33:08;;;;;;;2.28;1.80;;;22.10;99.90;;;;;;6184086;23;20001;-76
2022/08/24 06:35:34;;;;;;;2.38;2.17;;;22.20;99.90;;;;;;6183830;23;20007;-75
2022/08/24 06:38:00;;;;;;;5.22;2.17;;;22.20;99.90;;;;;;6183631;23;20072;-75
2022/08/24 06:40:26;;;;;;;3.90;1.73;;;22.30;99.90;;;;;;6183684;23;20051;-75
2022/08/24 06:42:52;;;;;;;3.75;1.63;;;22.40;99.90;;;;;;6182186;23;20428;-76
2022/08/24 06:45:20;;;;;;;4.03;2.00;;;22.50;99.90;;;;;;6182123;23;20005;-75
2022/08/24 06:47:45;;;;;;;2.75;1.70;;;22.50;99.90;;;;;;6183851;23;20004;-75
2022/08/24 06:50:11;;;;;;;1.70;1.38;;;22.50;99.90;;;;;;6183691;23;20063;-75
2022/08/24 06:52:38;;;;;;;2.33;1.67;;;22.60;99.90;;;;;;6183479;23;20438;-75
2022/08/24 06:55:05;;;;;;;1.75;1.45;;;22.70;99.90;;;;;;6182007;23;20453;-75
2022/08/24 06:57:31;;;;;;;1.83;1.40;;;22.80;99.90;;;;;;6183669;23;20001;-75
2022/08/24 06:59:57;;;;;;;2.08;1.70;;;22.90;99.90;;;;;;6183497;23;20392;-75
2022/08/24 07:02:23;;;;;;;1.63;1.50;;;22.90;99.90;;;;;;6183496;23;20005;-75
2022/08/24 07:04:49;;;;;;;2.95;1.55;;;22.90;99.90;;;;;;6183668;23;20013;-75
2022/08/24 07:07:16;;;;;;;1.20;1.15;;;23.00;99.90;;;;;;6157053;23;20058;-75
2022/08/24 07:09:42;;;;;;;1.25;1.20;;;23.00;99.90;;;;;;6183643;23;20005;-75
2022/08/24 07:12:07;;;;;;;1.00;1.00;;;23.10;99.90;;;;;;6183740;23;20087;-75
2022/08/24 07:14:33;;;;;;;1.95;1.20;;;23.10;99.90;;;;;;6183316;23;20210;-75
2022/08/24 07:16:59;;;;;;;1.05;1.05;;;23.10;99.90;;;;;;6157316;23;20092;-76
2022/08/24 07:19:24;;;;;;;1.15;0.90;;;23.30;99.90;;;;;;6183378;23;20048;-75
2022/08/24 07:21:55;;;;;;;3.00;1.00;;;23.40;99.90;;;;;;6183443;23;20001;-76
2022/08/24 07:24:21;;;;;;;0.65;0.60;;;23.50;99.90;;;;;;6183569;23;20329;-76
2022/08/24 07:26:47;;;;;;;0.70;0.70;;;23.50;99.90;;;;;;6157287;23;20001;-76
2022/08/24 07:29:14;;;;;;;0.70;0.70;;;23.70;99.90;;;;;;6183258;23;20063;-76
2022/08/24 07:31:41;;;;;;;1.42;0.90;;;23.70;99.90;;;;;;6156965;23;20009;-76
2022/08/24 07:34:09;;;;;;;3.72;0.82;;;23.80;99.90;;;;;;6183372;23;20067;-76
2022/08/24 07:36:36;;;;;;;2.83;1.00;;;23.80;99.90;;;;;;6183476;23;20001;-76
2022/08/24 07:39:03;;;;;;;2.45;1.10;;;23.80;99.90;;;;;;6183196;23;20438;-76
2022/08/24 07:41:30;;;;;;;2.67;0.80;;;23.90;99.90;;;;;;6156857;23;20005;-76
2022/08/24 07:43:56;;;;;;;0.93;0.93;;;23.90;99.90;;;;;;6156998;23;20334;-76
2022/08/24 07:46:23;;;;;;;2.25;1.00;;;24.00;99.90;;;;;;6184007;23;20001;-76
2022/08/24 07:48:49;;;;;;;1.13;1.00;;;24.00;99.90;;;;;;6184558;23;20009;-77
2022/08/24 07:51:17;;;;;;;0.85;0.85;;;24.00;99.90;;;;;;6158083;23;20032;-76
2022/08/24 07:53:43;;;;;;;0.73;0.70;;;24.10;99.90;;;;;;6184689;23;20072;-75
2022/08/24 07:56:11;;;;;;;1.27;0.98;;;24.10;99.90;;;;;;6184487;23;20012;-75
2022/08/24 07:58:36;;;;;;;2.38;1.05;;;24.20;99.90;;;;;;6184653;23;20008;-76
2022/08/24 08:01:04;;;;;;;0.70;0.70;;;24.30;99.90;;;;;;6158319;23;20357;-75
2022/08/24 08:03:32;;;;;;;1.10;0.80;;;24.20;99.90;;;;;;6183934;23;20004;-76
2022/08/24 08:06:00;;;;;;;0.73;0.73;;;24.20;99.90;;;;;;6183563;23;20013;-76
2022/08/24 08:08:27;;;;;;;2.50;0.70;;;24.30;99.90;;;;;;6183538;23;20614;-75
2022/08/24 08:10:53;;;;;;;1.02;0.75;;;24.30;99.90;;;;;;6183831;23;20004;-76
2022/08/24 08:13:19;;;;;;;2.45;1.00;;;24.40;99.90;;;;;;6184647;23;19993;-76
2022/08/24 08:15:45;;;;;;;1.75;0.80;;;24.40;99.90;;;;;;6185541;23;20004;-75
2022/08/24 08:18:12;;;;;;;0.68;0.68;;;24.40;99.90;;;;;;6158895;23;20413;-76
2022/08/24 08:20:39;;;;;;;5.25;1.30;;;24.40;99.90;;;;;;6158757;23;20064;-76
2022/08/24 08:25:53;;;;;;;0.60;0.60;;;24.60;99.90;;;;;;6185015;23;20097;-75
2022/08/24 08:28:23;;;;;;;0.80;0.80;;;24.70;99.90;;;;;;6185150;23;20056;-76
2022/08/24 08:30:49;;;;;;;0.98;0.60;;;24.60;99.90;;;;;;6184825;23;20007;-75
2022/08/24 08:33:15;;;;;;;0.75;0.75;;;24.60;99.90;;;;;;6158769;23;20076;-76
2022/08/24 08:35:43;;;;;;;0.70;0.70;;;24.60;99.90;;;;;;6184962;23;20001;-75
2022/08/24 08:38:09;;;;;;;1.77;0.68;;;24.70;99.90;;;;;;6158793;23;20008;-76
2022/08/24 08:40:55;;;;;;;0.90;0.90;;;24.80;99.90;;;;;;6184807;23;20005;-76
2022/08/24 08:43:36;;;;;;;0.82;0.82;;;24.80;99.90;;;;;;6184954;23;20001;-75
2022/08/24 08:46:59;;;;;;;0.60;0.60;;;24.70;99.90;;;;;;6184941;23;20009;-75
2022/08/24 08:49:37;;;;;;;;;;;24.80;99.90;;;;;;6078501;23;20087;-75
2022/08/24 08:52:23;;;;;;;0.68;0.60;;;24.80;99.90;;;;;;6158514;23;20313;-76
2022/08/24 08:55:13;;;;;;;1.02;0.85;;;24.90;99.80;;;;;;6184824;23;20075;-75
2022/08/24 08:57:55;;;;;;;1.65;0.80;;;25.00;99.40;;;;;;6184862;23;20008;-76
2022/08/24 09:00:23;;;;;;;0.80;0.80;;;24.90;99.50;;;;;;6184840;23;20005;-75
2022/08/24 09:03:15;;;;;;;0.82;0.82;;;24.90;99.80;;;;;;6184868;23;20059;-76
2022/08/24 09:06:09;;;;;;;0.70;0.70;;;24.90;99.90;;;;;;6177756;23;20079;-76
2022/08/24 09:08:56;;;;;;;2.72;0.77;;;24.90;99.00;;;;;;6182073;23;20001;-75
2022/08/24 09:11:47;;;;;;;1.45;0.90;;;25.00;99.50;;;;;;6183244;23;20373;-76
2022/08/24 09:14:12;;;;;;;2.15;0.60;;;25.00;99.90;;;;;;6184985;23;20001;-76
2022/08/24 09:16:53;;;;;;;1.10;0.88;;;25.10;99.20;;;;;;6184848;23;20119;-75
2022/08/24 09:19:48;;;;;;;3.58;0.93;;;25.10;98.80;;;;;;6180758;23;20001;-75
2022/08/24 09:22:18;;;;;;;0.60;0.60;;;25.10;99.90;;;;;;6172455;23;20001;-76
2022/08/24 09:24:53;;;;;;;1.10;0.95;;;25.10;98.80;;;;;;6177436;23;20001;-76
2022/08/24 09:27:58;;;;;;;0.82;0.82;;;25.10;99.20;;;;;;6176896;23;20409;-76
2022/08/24 09:30:31;;;;;;;0.80;0.80;;;25.20;99.20;;;;;;6173782;23;20048;-76
2022/08/24 09:33:15;;;;;;;0.88;0.80;;;25.30;99.90;;;;;;6177519;23;20008;-76
2022/08/24 09:36:19;;;;;;;0.82;0.82;;;25.40;99.90;;;;;;6178757;23;20005;-76
2022/08/24 09:39:04;;;;;;;1.38;0.80;;;25.40;99.90;;;;;;6103214;23;20005;-76
2022/08/24 09:41:44;;;;;;;0.68;0.65;;;25.50;99.90;;;;;;6176792;23;20522;-76
2022/08/24 09:44:31;;;;;;;1.13;0.90;;;25.50;99.90;;;;;;6178642;23;20008;-76
2022/08/24 09:47:15;;;;;;;0.90;0.90;;;25.50;99.90;;;;;;6177433;23;20152;-76
2022/08/24 09:50:18;;;;;;;2.30;0.80;;;25.60;99.70;;;;;;6179522;23;20012;-76
2022/08/24 09:53:02;;;;;;;;;;;25.60;99.10;;;;;;6176991;23;20001;-76
2022/08/24 09:56:00;;;;;;;0.65;0.65;;;25.70;99.30;;;;;;6178166;23;19904;-76
2022/08/24 09:58:53;;;;;;;1.05;0.85;;;25.80;98.50;;;;;;6178344;23;20400;-75
2022/08/24 10:01:52;;;;;;;1.40;1.30;;;25.80;99.90;;;;;;6179059;23;19997;-76
2022/08/24 10:04:37;;;;;;;1.25;0.95;;;26.20;99.10;;;;;;6176860;23;20013;-76
2022/08/24 10:07:24;;;;;;;0.80;0.80;;;26.20;98.90;;;;;;6177980;23;20028;-75
2022/08/24 10:10:15;;;;;;;1.00;0.95;;;26.10;99.70;;;;;;6175728;23;20059;-75
2022/08/24 10:12:49;;;;;;;1.33;1.02;;;26.10;98.00;;;;;;6176507;23;20012;-76
2022/08/24 10:15:18;;;;;;;2.08;1.10;;;26.10;97.50;;;;;;6176028;23;20041;-75
2022/08/24 10:18:05;;;;;;;1.35;0.98;;;26.10;97.60;;;;;;6177627;23;20092;-75
2022/08/24 10:20:33;;;;;;;1.15;1.05;;;26.10;97.80;;;;;;6178132;23;20001;-74
2022/08/24 10:23:36;;;;;;;1.13;1.00;;;26.10;98.40;;;;;;6178975;23;20333;-75
2022/08/24 10:26:17;;;;;;;1.42;1.33;;;26.20;98.50;;;;;;6179244;23;20008;-75
2022/08/24 10:29:04;;;;;;;1.02;0.85;;;26.30;99.90;;;;;;6179024;23;20001;-75
2022/08/24 10:31:32;;;;;;;0.98;0.90;;;26.30;99.40;;;;;;6177972;23;20008;-76
2022/08/24 10:34:30;;;;;;;1.15;1.00;;;26.30;98.60;;;;;;6179261;23;20012;-74
2022/08/24 10:37:11;;;;;;;1.85;1.17;;;26.40;98.30;;;;;;6176280;23;20021;-74
2022/08/24 10:40:03;;;;;;;0.80;0.80;;;26.50;98.20;;;;;;6178168;23;20009;-75
2022/08/24 10:45:50;;;;;;;;;;;26.80;98.40;;;;;;6178284;23;19979;-76
2022/08/24 10:48:48;;;;;;;0.93;0.93;;;26.70;98.10;;;;;;6180494;23;19907;-75
2022/08/24 10:51:48;;;;;;;1.23;1.15;;;26.70;97.20;;;;;;6079019;23;20418;-74
2022/08/24 10:54:18;;;;;;;1.08;1.08;;;26.70;97.30;;;;;;6082599;23;20009;-75
2022/08/24 10:57:09;;;;;;;1.45;1.27;;;26.80;97.70;;;;;;6183002;23;19997;-75
2022/08/24 11:00:11;;;;;;;1.02;1.02;;;26.90;97.60;;;;;;6181715;23;20365;-75
2022/08/24 11:02:38;;;;;;;;;;;27.10;99.30;;;;;;6182137;23;20008;-75
2022/08/24 11:05:10;;;;;;;0.90;0.90;;;27.40;98.60;;;;;;6183120;23;19916;-75
2022/08/24 11:07:36;;;;;;;;;;;27.50;99.60;;;;;;6183784;23;20008;-74
2022/08/24 11:10:07;;;;;;;1.23;1.10;;;27.70;99.70;;;;;;6156163;23;20224;-75
2022/08/24 11:12:44;;;;;;;2.78;1.00;;;27.70;97.60;;;;;;6183173;23;20001;-75
2022/08/24 11:15:22;;;;;;;1.95;1.30;;;27.70;97.30;;;;;;6183196;23;20005;-77
2022/08/24 11:18:03;;;;;;;1.70;1.60;;;27.60;97.00;;;;;;6180121;23;20399;-76
2022/08/24 11:20:45;;;;;;;1.88;1.30;;;27.50;96.70;;;;;;6177478;23;20069;-76
2022/08/24 11:23:24;;;;;;;1.20;1.20;;;27.50;97.40;;;;;;6178693;23;20096;-75
2022/08/24 11:26:00;;;;;;;4.97;1.50;;;27.60;97.30;;;;;;6178558;23;20029;-75
2022/08/24 11:28:26;;;;;;;3.00;1.17;;;27.70;97.10;;;;;;6178301;23;20184;-75
2022/08/24 11:30:52;;;;;;;4.25;1.60;;;27.70;96.70;;;;;;6177328;23;20413;-75
2022/08/24 11:33:29;;;;;;;1.50;1.05;;;27.70;96.70;;;;;;6178719;23;20001;-75
2022/08/24 11:35:56;;;;;;;1.95;1.40;;;27.60;95.60;;;;;;6178560;23;20039;-75
2022/08/24 11:38:33;;;;;;;1.80;1.08;;;27.60;96.70;;;;;;6177347;23;20461;-76
2022/08/24 11:41:18;;;;;;;1.23;1.13;;;27.70;96.80;;;;;;6151342;23;20333;-75
2022/08/24 11:44:08;;;;;;;2.58;1.20;;;27.70;97.40;;;;;;6178456;23;20012;-76
2022/08/24 11:46:45;;;;;;;3.50;1.85;;;28.00;96.90;;;;;;6177858;23;20007;-75
2022/08/24 11:49:44;;;;;;;3.53;1.52;;;28.10;96.80;;;;;;6179775;23;20067;-75
2022/08/24 11:52:28;;;;;;;3.28;1.08;;;28.30;96.00;;;;;;6154129;23;20005;-75
2022/08/24 11:55:06;;;;;;;2.72;1.10;;;28.30;96.30;;;;;;6180310;23;20319;-75
2022/08/24 11:57:38;;;;;;;1.88;1.73;;;28.40;96.60;;;;;;6180181;23;20005;-76
2022/08/24 12:00:13;;;;;;;1.23;1.10;;;28.40;94.50;;;;;;6153487;23;20016;-76
2022/08/24 12:02:47;;;;;;;2.10;1.50;;;28.50;95.20;;;;;;6153156;23;20005;-75
2022/08/24 12:05:44;;;;;;;1.65;1.13;;;28.50;95.30;;;;;;6179170;23;20104;-76
2022/08/24 12:08:29;;;;;;;1.70;1.60;;;28.60;94.30;;;;;;6153383;23;20016;-75
2022/08/24 12:11:04;;;;;;;1.25;1.20;;;28.60;94.80;;;;;;6153564;23;20332;-76
2022/08/24 12:13:42;;;;;;;1.38;1.27;;;28.70;94.10;;;;;;6153594;23;20087;-75
2022/08/24 12:16:11;;;;;;;1.15;1.00;;;28.80;95.30;;;;;;6153136;23;20051;-75
2022/08/24 12:18:55;;;;;;;1.30;1.20;;;28.90;94.10;;;;;;6176654;23;20393;-75
2022/08/24 12:21:24;;;;;;;2.35;1.15;;;28.90;93.70;;;;;;6177697;23;20056;-75
2022/08/24 12:24:00;;;;;;;2.60;1.48;;;29.10;94.50;;;;;;6177081;23;20364;-75
2022/08/24 12:26:32;;;;;;;2.25;0.90;;;29.20;94.00;;;;;;6177317;23;20008;-75
2022/08/24 12:29:07;;;;;;;2.03;1.63;;;29.30;93.50;;;;;;6152906;23;20013;-76
2022/08/24 12:32:12;;;;;;;1.15;1.13;;;29.40;94.60;;;;;;6179763;23;20338;-75
2022/08/24 12:34:49;;;;;;;2.50;1.23;;;29.50;93.70;;;;;;6179143;23;20005;-76
2022/08/24 12:37:25;;;;;;;1.10;1.08;;;29.40;92.10;;;;;;6180245;23;20442;-75
2022/08/24 12:40:07;;;;;;;1.40;1.30;;;29.60;93.70;;;;;;6179659;23;20005;-75
2022/08/24 12:42:48;;;;;;;2.53;1.15;;;29.60;93.40;;;;;;6179918;23;20002;-76
2022/08/24 12:45:17;;;;;;;2.78;1.48;;;29.60;91.60;;;;;;6179858;23;20005;-76
2022/08/24 12:47:55;;;;;;;2.45;1.10;;;29.70;91.50;;;;;;6179715;23;19997;-76
2022/08/24 12:50:47;;;;;;;1.40;1.30;;;29.70;91.70;;;;;;6153175;23;20009;-76
2022/08/24 12:53:41;;;;;;;1.30;1.30;;;29.80;91.80;;;;;;6179032;23;20005;-75
2022/08/24 12:56:27;;;;;;;1.05;1.02;;;29.90;91.40;;;;;;6153084;23;20299;-75
2022/08/24 12:59:02;;;;;;;1.00;1.00;;;30.00;91.90;;;;;;6179592;23;20001;-75
2022/08/24 13:01:32;;;;;;;1.92;1.08;;;30.00;91.70;;;;;;6180864;23;20082;-75
2022/08/24 13:04:34;;;;;;;1.20;1.20;;;30.00;91.00;;;;;;6184620;23;20001;-75
2022/08/24 13:07:05;;;;;;;0.95;0.95;;;30.00;90.40;;;;;;6158383;23;20472;-80
2022/08/24 13:09:56;;;;;;;1.23;1.10;;;30.10;90.00;;;;;;6184852;23;20355;-80
2022/08/24 13:12:43;;;;;;;2.90;1.35;;;30.10;90.30;;;;;;6136622;23;20039;-80
2022/08/24 13:15:27;;;;;;;1.15;1.15;;;30.20;89.40;;;;;;6152504;23;20084;-80
2022/08/24 13:18:18;;;;;;;4.22;1.40;;;30.20;89.40;;;;;;6178891;23;20001;-80
2022/08/24 13:20:44;;;;;;;1.13;1.10;;;30.30;91.00;;;;;;6179361;23;20652;-81
2022/08/24 13:23:10;;;;;;;1.20;1.20;;;30.40;89.90;;;;;;6152860;23;20005;-81
2022/08/24 13:26:14;;;;;;;1.30;1.30;;;30.30;88.90;;;;;;6180558;23;20000;-80
2022/08/24 13:28:51;;;;;;;33.85;23.73;;;30.30;90.00;;;;;;6172159;23;20008;-79